Time;durP1;ratioP1;P1;durP2;ratioP2;P2;SDS_P1;SDS_P2;PMS_P1;PMS_P2;Temp;Humidity;BMP_temperature;BMP_pressure;BME280_temperature;BME280_humidity;BME280_pressure;Samples;Min_cycle;Max_cycle;Signal;HPM_P1;HPM_P2
2023/01/12 00:02:03;;;;;;;4.03;1.43;;;;;;;6.11;89.65;99088.31;5000753;28;102607;-59
2023/01/12 00:04:34;;;;;;;4.83;1.30;;;;;;;6.02;89.09;99087.91;4989659;28;103797;-59
2023/01/12 00:07:02;;;;;;;2.60;0.90;;;;;;;6.14;89.49;99080.31;4996682;28;104087;-58
2023/01/12 00:09:30;;;;;;;3.47;1.20;;;;;;;6.23;89.11;99082.47;5000274;28;103226;-58
2023/01/12 00:11:58;;;;;;;3.90;1.10;;;;;;;6.28;88.90;99085.72;4984686;28;102698;-58
2023/01/12 00:14:26;;;;;;;5.33;1.23;;;;;;;6.20;88.93;99082.59;4998239;28;103770;-60
2023/01/12 00:16:54;;;;;;;5.37;1.63;;;;;;;6.32;88.42;99081.16;4997415;28;103239;-61
2023/01/12 00:19:24;;;;;;;8.60;2.03;;;;;;;6.45;88.13;99071.78;5001262;28;103212;-60
2023/01/12 00:21:58;;;;;;;4.73;1.40;;;;;;;6.29;88.55;99070.81;4996689;28;102642;-61
2023/01/12 00:24:28;;;;;;;6.03;2.00;;;;;;;6.37;88.41;99069.50;5001976;28;102750;-59
2023/01/12 00:26:57;;;;;;;6.03;1.60;;;;;;;6.43;89.09;99062.28;5002815;28;103248;-60
2023/01/12 00:29:26;;;;;;;2.73;1.40;;;;;;;6.48;88.57;99073.41;4999037;28;104233;-58
2023/01/12 00:31:59;;;;;;;4.83;1.10;;;;;;;6.52;88.89;99067.91;5000403;28;102679;-58
2023/01/12 00:34:29;;;;;;;3.47;1.63;;;;;;;6.47;88.46;99072.53;4999572;28;102669;-61
2023/01/12 00:36:59;;;;;;;7.27;2.17;;;;;;;6.64;87.61;99071.69;5005165;28;103996;-61
2023/01/12 00:39:27;;;;;;;5.37;1.60;;;;;;;6.72;86.87;99073.00;5004467;28;103162;-58
2023/01/12 00:47:28;;;;;;;7.00;1.50;;;;;;;7.02;85.27;99048.72;5001327;28;105069;-60
2023/01/12 00:49:58;;;;;;;3.97;1.03;;;;;;;7.10;84.77;99050.03;5007284;28;104129;-61
2023/01/12 00:52:27;;;;;;;4.07;1.77;;;;;;;7.07;85.18;99044.94;5014192;28;102631;-61
2023/01/12 00:54:59;;;;;;;4.27;1.07;;;;;;;7.18;84.33;99041.72;5013974;28;103682;-58
2023/01/12 00:57:27;;;;;;;2.67;1.27;;;;;;;7.18;84.20;99044.34;4987161;28;104147;-58
2023/01/12 00:59:57;;;;;;;5.10;1.37;;;;;;;7.22;84.44;99038.84;5007382;28;103266;-58
2023/01/12 01:02:26;;;;;;;4.70;1.40;;;;;;;7.25;83.54;99043.09;5011497;28;102651;-58
2023/01/12 01:04:54;;;;;;;2.80;1.37;;;;;;;7.29;83.65;99047.25;5009172;28;102636;-61
2023/01/12 01:07:23;;;;;;;3.93;1.60;;;;;;;7.37;83.35;99037.19;5000675;28;104058;-58
2023/01/12 01:09:51;;;;;;;4.67;1.40;;;;;;;7.44;83.45;99047.28;4998784;28;103290;-58
2023/01/12 01:12:19;;;;;;;3.93;1.20;;;;;;;7.29;83.17;99050.75;4991865;28;102715;-58
2023/01/12 01:14:47;;;;;;;6.17;1.30;;;;;;;7.47;82.85;99035.72;4998835;28;102634;-58
2023/01/12 01:17:15;;;;;;;4.97;1.90;;;;;;;7.39;83.51;99046.69;4997322;28;102889;-58
2023/01/12 01:19:43;;;;;;;5.23;1.60;;;;;;;7.38;83.39;99044.97;4996485;28;103234;-59
2023/01/12 01:22:12;;;;;;;5.23;1.47;;;;;;;7.41;82.97;99044.81;4998456;28;102620;-59
2023/01/12 01:24:42;;;;;;;5.60;1.50;;;;;;;7.39;82.78;99046.69;5001784;28;103882;-58
2023/01/12 01:27:10;;;;;;;2.43;1.10;;;;;;;7.45;82.58;99056.88;4994957;28;104288;-58
2023/01/12 01:29:37;;;;;;;2.57;1.30;;;;;;;7.63;82.37;99062.06;4997228;28;104379;-58
2023/01/12 01:32:06;;;;;;;3.27;1.30;;;;;;;7.64;82.47;99056.69;5000953;28;102703;-59
2023/01/12 01:34:34;;;;;;;3.33;1.27;;;;;;;7.64;82.73;99050.59;4997655;28;103930;-58
2023/01/12 01:37:02;;;;;;;5.07;1.30;;;;;;;7.69;82.20;99048.59;4995808;28;103194;-58
2023/01/12 01:39:30;;;;;;;6.03;1.50;;;;;;;7.72;81.98;99051.03;4998940;28;103240;-61
2023/01/12 01:42:00;;;;;;;3.23;1.37;;;;;;;7.82;81.84;99054.84;4989383;28;102746;-58
2023/01/12 01:44:50;;;;;;;6.17;1.40;;;;;;;7.81;81.89;99055.78;4980384;28;103495;-58
2023/01/12 01:47:30;;;;;;;2.67;1.10;;;;;;;7.74;81.91;99051.81;4996473;28;103235;-58
2023/01/12 01:50:01;;;;;;;6.00;1.60;;;;;;;7.81;81.39;99059.25;5003228;28;102990;-59
2023/01/12 01:52:33;;;;;;;5.30;1.20;;;;;;;7.85;81.02;99057.31;5007537;27;102617;-61
2023/01/12 01:55:06;;;;;;;3.53;1.37;;;;;;;7.93;80.75;99057.72;5001218;28;102936;-61
2023/01/12 01:57:42;;;;;;;3.07;1.20;;;;;;;7.90;80.54;99068.41;5003259;28;103344;-61
2023/01/12 02:00:12;;;;;;;6.33;1.47;;;;;;;7.97;80.35;99061.91;4989825;28;104123;-61
2023/01/12 02:02:43;;;;;;;4.33;1.17;;;;;;;7.99;80.30;99063.50;4986666;28;102652;-58
2023/01/12 02:05:12;;;;;;;4.00;1.33;;;;;;;8.08;79.66;99052.44;4996903;28;102942;-61
2023/01/12 02:07:40;;;;;;;4.70;1.20;;;;;;;8.06;79.54;99053.47;4990176;28;103403;-58
2023/01/12 02:10:09;;;;;;;4.83;1.53;;;;;;;8.15;79.33;99059.06;4986383;28;103263;-58
2023/01/12 02:18:21;;;;;;;5.10;1.60;;;;;;;8.25;78.48;99040.13;4995897;28;102945;-61
2023/01/12 02:21:06;;;;;;;3.37;1.23;;;;;;;8.18;78.49;99024.69;4985724;28;103281;-61
2023/01/12 02:24:15;;;;;;;4.67;1.90;;;;;;;8.23;77.98;99026.19;4986486;28;102709;-61
2023/01/12 02:27:11;;;;;;;5.60;1.40;;;;;;;8.20;78.36;99024.56;4994510;28;103770;-61
2023/01/12 02:30:15;;;;;;;4.47;1.40;;;;;;;8.23;77.91;99019.13;4983078;28;103798;-61
2023/01/12 02:32:54;;;;;;;2.53;1.20;;;;;;;8.26;77.92;99013.69;4968076;28;103204;-61
2023/01/12 02:35:27;;;;;;;4.93;1.20;;;;;;;8.15;77.76;99002.94;4985575;28;102657;-61
2023/01/12 02:38:03;;;;;;;4.20;1.33;;;;;;;8.32;77.50;99008.13;4985719;28;102689;-61
2023/01/12 02:40:36;;;;;;;4.63;1.13;;;;;;;8.34;77.13;99003.59;4982012;28;103246;-61
2023/01/12 02:43:12;;;;;;;6.83;1.97;;;;;;;8.37;77.53;98998.16;4988827;28;103001;-61
2023/01/12 02:45:47;;;;;;;5.47;1.23;;;;;;;8.33;77.63;98999.28;4993746;28;104245;-61
2023/01/12 02:48:22;;;;;;;4.00;1.50;;;;;;;8.40;77.48;98990.09;4967490;28;104020;-59
2023/01/12 02:50:57;;;;;;;4.20;1.60;;;;;;;8.29;77.51;98986.38;4982539;28;103253;-58
2023/01/12 02:53:34;;;;;;;7.17;1.67;;;;;;;8.29;77.22;98984.59;4984147;28;103201;-58
2023/01/12 02:56:07;;;;;;;5.80;1.40;;;;;;;8.34;77.57;98984.31;4981094;28;102692;-59
2023/01/12 02:58:38;;;;;;;4.63;1.33;;;;;;;8.30;77.33;98975.78;4984929;28;102794;-58
2023/01/12 03:01:09;;;;;;;4.97;1.90;;;;;;;8.30;77.55;98970.50;4977064;28;103472;-58
2023/01/12 03:03:39;;;;;;;3.00;1.23;;;;;;;8.33;77.26;98983.50;4991729;28;103317;-58
2023/01/12 03:06:08;;;;;;;5.37;1.60;;;;;;;8.29;77.07;98966.19;4982071;28;103003;-58
2023/01/12 03:08:39;;;;;;;5.53;1.63;;;;;;;8.34;76.83;98963.25;4989789;28;102732;-58
2023/01/12 03:11:12;;;;;;;8.00;1.80;;;;;;;8.33;77.17;98957.16;4988727;28;103362;-58
2023/01/12 03:13:45;;;;;;;2.60;1.17;;;;;;;8.36;77.61;98975.41;4985664;28;103205;-59
2023/01/12 03:16:16;;;;;;;7.80;1.60;;;;;;;8.41;77.27;98985.66;4969842;28;102690;-61
2023/01/12 03:18:50;;;;;;;7.87;1.70;;;;;;;8.42;77.01;98987.38;4970950;28;102998;-61
2023/01/12 03:21:26;;;;;;;4.50;1.90;;;;;;;8.40;77.17;98976.91;4983217;28;103707;-61
2023/01/12 03:24:02;;;;;;;5.10;1.87;;;;;;;8.40;77.44;98978.69;4980675;28;103268;-61
2023/01/12 03:26:33;;;;;;;5.73;1.37;;;;;;;8.36;77.21;98978.06;4971726;28;102714;-61
2023/01/12 03:29:05;;;;;;;7.03;1.53;;;;;;;8.42;77.37;98977.66;4988651;28;102721;-61
2023/01/12 03:31:33;;;;;;;6.70;1.40;;;;;;;8.33;76.90;98974.75;4966815;28;104337;-61
2023/01/12 03:34:05;;;;;;;6.53;1.87;;;;;;;8.41;77.18;98976.00;4970299;28;103299;-61
2023/01/12 03:36:45;;;;;;;5.90;1.53;;;;;;;8.35;76.79;98976.34;4982349;28;102703;-61
2023/01/12 03:39:20;;;;;;;5.20;1.20;;;;;;;8.39;76.62;98971.75;4982997;28;103566;-61
2023/01/12 03:41:56;;;;;;;5.77;1.63;;;;;;;8.40;76.73;98979.56;4986805;28;103971;-61
2023/01/12 03:44:31;;;;;;;5.10;1.60;;;;;;;8.45;76.63;98972.22;4984422;28;103244;-61
2023/01/12 03:47:03;;;;;;;4.73;1.77;;;;;;;8.35;76.63;98976.34;4987160;28;102582;-61
2023/01/12 03:49:38;;;;;;;3.87;1.27;;;;;;;8.41;77.19;98975.13;4987956;28;104329;-60
2023/01/12 03:52:09;;;;;;;7.13;1.97;;;;;;;8.44;77.02;98970.56;4981008;28;103839;-58
2023/01/12 03:54:40;;;;;;;6.77;1.77;;;;;;;8.36;76.83;98967.53;4986775;28;103274;-58
2023/01/12 03:57:10;;;;;;;6.20;1.80;;;;;;;8.43;76.66;98968.84;4969620;28;102747;-58
2023/01/12 03:59:39;;;;;;;3.77;1.30;;;;;;;8.43;76.91;98973.25;4987111;28;103615;-58
2023/01/12 04:02:07;;;;;;;5.57;1.10;;;;;;;8.56;76.29;98972.44;4966909;28;104223;-58
2023/01/12 04:04:36;;;;;;;8.13;1.80;;;;;;;8.49;76.30;98963.22;4979527;28;103149;-58
2023/01/12 04:07:04;;;;;;;8.53;1.83;;;;;;;8.41;76.57;98965.47;4978967;28;102537;-58
2023/01/12 04:09:32;;;;;;;5.77;1.70;;;;;;;8.53;76.31;98964.72;4981605;28;103716;-58
2023/01/12 04:14:48;;;;;;;10.37;2.40;;;;;;;8.48;76.34;98948.34;4972788;28;103092;-58
2023/01/12 04:17:23;;;;;;;6.07;1.60;;;;;;;8.58;76.24;98952.13;4981333;28;102551;-59
2023/01/12 04:19:52;;;;;;;6.17;1.57;;;;;;;8.49;76.62;98943.94;4980281;28;102907;-59
2023/01/12 04:25:06;;;;;;;6.00;1.77;;;;;;;8.58;76.32;98946.88;4976690;28;103349;-58
2023/01/12 04:27:36;;;;;;;5.60;1.57;;;;;;;8.57;76.01;98944.31;4972925;28;102683;-58
2023/01/12 04:30:05;;;;;;;6.00;1.50;;;;;;;8.64;76.22;98938.59;4976534;28;103677;-59
2023/01/12 04:32:32;;;;;;;4.57;1.60;;;;;;;8.64;76.23;98930.69;4957863;28;104133;-59
2023/01/12 04:35:02;;;;;;;6.53;1.43;;;;;;;8.51;76.38;98932.38;4976335;28;103244;-59
2023/01/12 04:37:31;;;;;;;7.47;1.70;;;;;;;8.56;76.30;98926.84;4979947;28;102567;-59
2023/01/12 04:39:59;;;;;;;4.63;1.50;;;;;;;8.59;76.25;98919.56;4980703;28;102946;-59
2023/01/12 04:45:12;;;;;;;5.83;1.43;;;;;;;8.65;75.92;98919.22;4974295;28;103283;-59
2023/01/12 04:47:40;;;;;;;4.43;1.20;;;;;;;8.63;76.28;98917.63;4972362;28;103011;-59
2023/01/12 04:50:10;;;;;;;8.13;1.90;;;;;;;8.62;76.09;98914.13;4973945;28;104029;-58
2023/01/12 04:52:38;;;;;;;4.57;1.93;;;;;;;8.66;76.41;98907.75;4977935;28;104021;-60
2023/01/12 04:55:07;;;;;;;9.93;1.87;;;;;;;8.58;76.52;98899.47;4976185;28;103266;-59
2023/01/12 04:57:35;;;;;;;5.63;1.60;;;;;;;8.67;76.28;98904.16;4972231;28;102740;-58
2023/01/12 05:00:04;;;;;;;7.77;1.40;;;;;;;8.63;76.03;98902.66;4981164;28;103384;-59
2023/01/12 05:02:32;;;;;;;3.17;1.30;;;;;;;8.57;76.19;98894.28;4979342;28;103352;-59
2023/01/12 05:05:00;;;;;;;4.63;1.43;;;;;;;8.65;76.08;98898.13;4983478;28;103207;-59
2023/01/12 05:07:29;;;;;;;4.80;1.67;;;;;;;8.64;76.31;98904.38;4976585;28;103037;-59
2023/01/12 05:12:56;;;;;;;6.87;1.20;;;;;;;8.73;75.92;98903.78;4881364;28;103917;-59
2023/01/12 05:15:24;;;;;;;6.73;1.90;;;;;;;8.74;75.57;98902.00;4891895;28;103669;-59
2023/01/12 05:17:53;;;;;;;5.47;1.47;;;;;;;8.65;76.21;98905.19;4931329;28;102986;-59
2023/01/12 05:20:21;;;;;;;5.80;1.73;;;;;;;8.72;76.17;98902.09;4960237;28;103521;-59
2023/01/12 05:22:51;;;;;;;6.07;1.70;;;;;;;8.77;75.96;98909.72;4983148;28;103597;-58
2023/01/12 05:25:19;;;;;;;6.40;1.27;;;;;;;8.77;75.74;98912.34;4973073;28;103351;-59
2023/01/12 05:27:47;;;;;;;5.93;1.90;;;;;;;8.73;76.29;98909.03;4970864;28;102666;-58
2023/01/12 05:30:15;;;;;;;6.37;1.67;;;;;;;8.73;76.24;98900.28;4983961;28;102718;-59
2023/01/12 05:32:44;;;;;;;6.97;2.00;;;;;;;8.67;75.81;98898.06;4978472;28;104209;-59
2023/01/12 05:35:12;;;;;;;5.47;1.70;;;;;;;8.80;75.85;98887.59;4955017;28;103309;-58
2023/01/12 05:37:40;;;;;;;4.03;1.30;;;;;;;8.83;75.52;98883.00;4985935;28;102642;-59
2023/01/12 05:40:11;;;;;;;7.40;1.40;;;;;;;8.73;75.76;98887.97;4966623;28;102844;-59
2023/01/12 05:45:27;;;;;;;5.60;1.60;;;;;;;8.88;74.43;98885.31;4974259;28;103470;-61
2023/01/12 05:48:00;;;;;;;5.83;1.47;;;;;;;8.87;74.23;98888.91;4985945;28;102657;-59
2023/01/12 05:50:28;;;;;;;8.63;1.50;;;;;;;8.78;74.53;98889.50;4980143;28;103784;-59
2023/01/12 05:53:09;;;;;;;7.53;1.93;;;;;;;8.85;74.41;98896.06;4986209;28;102962;-59
2023/01/12 05:55:38;;;;;;;6.20;1.80;;;;;;;8.82;74.47;98897.09;4987571;28;103209;-59
2023/01/12 05:58:07;;;;;;;8.50;1.67;;;;;;;8.84;74.47;98900.50;4962240;28;102704;-59
2023/01/12 06:00:34;;;;;;;7.37;1.83;;;;;;;8.91;74.23;98895.69;4980229;28;102802;-59
2023/01/12 06:03:03;;;;;;;5.57;1.80;;;;;;;8.93;74.19;98888.50;4983109;28;103241;-59
2023/01/12 06:05:31;;;;;;;7.30;1.63;;;;;;;8.85;74.76;98872.34;4992017;28;103158;-59
2023/01/12 06:07:59;;;;;;;5.60;1.40;;;;;;;8.86;74.65;98876.69;5003828;28;103145;-59
2023/01/12 06:10:27;;;;;;;5.97;1.37;;;;;;;8.81;74.54;98884.03;4997203;28;103764;-59
2023/01/12 06:15:41;;;;;;;7.37;1.97;;;;;;;8.83;75.06;98876.88;4983251;28;103718;-61
2023/01/12 06:18:10;;;;;;;5.97;1.53;;;;;;;8.76;75.14;98872.94;4974666;28;102918;-59
2023/01/12 06:20:40;;;;;;;5.90;1.63;;;;;;;8.74;75.21;98865.13;4990282;28;103620;-59
2023/01/12 06:23:08;;;;;;;6.47;1.87;;;;;;;8.70;75.56;98861.00;4995037;28;103737;-59
2023/01/12 06:25:36;;;;;;;5.80;2.20;;;;;;;8.78;75.22;98863.16;4991559;28;103244;-59
2023/01/12 06:28:06;;;;;;;5.73;1.47;;;;;;;8.75;75.51;98853.66;4981034;28;103217;-59
2023/01/12 06:30:34;;;;;;;7.07;1.87;;;;;;;8.63;75.22;98838.59;4977454;28;104153;-59
2023/01/12 06:33:02;;;;;;;6.80;1.67;;;;;;;8.77;75.39;98845.63;4985996;28;104496;-59
2023/01/12 06:35:32;;;;;;;5.73;1.50;;;;;;;8.72;75.24;98849.41;4990153;28;103171;-59
2023/01/12 06:38:01;;;;;;;9.23;1.90;;;;;;;8.80;74.92;98841.03;4992433;28;102553;-59
2023/01/12 06:40:29;;;;;;;7.03;1.83;;;;;;;8.90;74.92;98841.31;4994124;28;102717;-59
2023/01/12 06:42:56;;;;;;;5.50;1.67;;;;;;;8.93;74.71;98841.09;5001341;28;103615;-59
2023/01/12 06:45:26;;;;;;;9.47;2.17;;;;;;;8.87;74.79;98846.78;4983202;28;104264;-60
2023/01/12 06:47:56;;;;;;;4.13;1.63;;;;;;;8.87;75.06;98842.31;4984486;28;102817;-60
2023/01/12 06:50:26;;;;;;;5.17;1.43;;;;;;;8.85;74.91;98848.63;5007365;28;103575;-59
2023/01/12 06:52:54;;;;;;;6.87;2.07;;;;;;;8.92;74.87;98855.22;4998195;28;103264;-59
2023/01/12 06:55:22;;;;;;;6.43;1.40;;;;;;;8.83;74.98;98847.88;5007849;28;103339;-61
2023/01/12 06:57:50;;;;;;;7.93;1.40;;;;;;;8.79;74.94;98859.53;5002363;28;102553;-62
2023/01/12 07:00:18;;;;;;;6.70;2.50;;;;;;;8.88;75.05;98853.72;5001883;28;102732;-61
2023/01/12 07:02:50;;;;;;;8.90;1.60;;;;;;;8.96;74.78;98846.16;4997462;28;103305;-62
2023/01/12 07:05:18;;;;;;;7.10;1.50;;;;;;;8.87;74.74;98844.13;5001686;28;102977;-61
2023/01/12 07:07:48;;;;;;;6.37;1.30;;;;;;;8.94;75.10;98848.06;5000450;28;102716;-61
2023/01/12 07:10:19;;;;;;;7.03;1.63;;;;;;;8.98;74.56;98857.47;4982263;28;103592;-61
2023/01/12 07:12:49;;;;;;;7.27;1.90;;;;;;;8.92;74.64;98844.69;5001032;28;104170;-61
2023/01/12 07:15:16;;;;;;;5.67;1.63;;;;;;;9.04;74.33;98849.19;4997597;28;104205;-61
2023/01/12 07:17:44;;;;;;;5.77;1.73;;;;;;;9.12;74.02;98833.72;5000392;28;102669;-62
2023/01/12 07:20:14;;;;;;;7.67;1.50;;;;;;;9.09;73.99;98834.78;5000609;28;102666;-61
2023/01/12 07:22:42;;;;;;;4.43;1.30;;;;;;;9.10;73.79;98854.03;5001835;28;103425;-61
2023/01/12 07:25:10;;;;;;;3.30;1.40;;;;;;;9.15;73.91;98862.53;4995998;28;103216;-61
2023/01/12 07:27:37;;;;;;;5.37;1.10;;;;;;;9.20;73.71;98852.53;4999501;28;102627;-62
2023/01/12 07:30:06;;;;;;;7.73;1.60;;;;;;;9.20;73.12;98849.88;5000649;28;103997;-62
2023/01/12 07:32:34;;;;;;;6.77;1.50;;;;;;;9.10;73.57;98854.03;4980787;28;103735;-61
2023/01/12 07:35:05;;;;;;;3.87;1.30;;;;;;;9.20;73.28;98861.28;4997706;28;103199;-60
2023/01/12 07:37:34;;;;;;;6.57;1.50;;;;;;;9.30;72.99;98853.63;5001751;28;102658;-59
2023/01/12 07:40:02;;;;;;;4.77;1.20;;;;;;;9.38;73.23;98853.97;4998222;28;104364;-59
2023/01/12 07:42:32;;;;;;;6.30;1.57;;;;;;;9.41;73.05;98852.91;4998722;28;104585;-59
2023/01/12 07:45:02;;;;;;;7.73;1.57;;;;;;;9.22;72.86;98843.56;4980767;28;103269;-60
2023/01/12 07:47:29;;;;;;;6.90;1.57;;;;;;;9.30;73.11;98858.88;4997980;28;102841;-59
2023/01/12 07:49:57;;;;;;;5.93;1.30;;;;;;;9.36;73.00;98858.50;5001209;28;103798;-59
2023/01/12 07:52:25;;;;;;;5.90;1.27;;;;;;;9.38;72.88;98853.09;4999077;28;104287;-59
2023/01/12 07:54:57;;;;;;;5.93;1.37;;;;;;;9.49;72.64;98855.91;4998500;28;103224;-59
2023/01/12 07:57:24;;;;;;;8.07;1.80;;;;;;;9.28;72.77;98847.59;4998042;28;102758;-59
2023/01/12 07:59:52;;;;;;;4.73;1.73;;;;;;;9.36;72.73;98853.22;5000426;28;102602;-60
2023/01/12 08:02:20;;;;;;;4.33;1.43;;;;;;;9.39;72.65;98836.34;5000205;28;103245;-59
2023/01/12 08:04:48;;;;;;;6.17;2.07;;;;;;;9.43;72.35;98841.31;4991592;28;104416;-59
2023/01/12 08:07:16;;;;;;;5.20;1.20;;;;;;;9.44;71.93;98850.06;4998247;28;102715;-59
2023/01/12 08:09:44;;;;;;;5.23;1.67;;;;;;;9.48;71.80;98839.25;4998816;28;103801;-60
2023/01/12 08:12:13;;;;;;;4.47;1.30;;;;;;;9.55;71.56;98845.78;5001266;28;104025;-59
2023/01/12 08:14:41;;;;;;;5.40;1.17;;;;;;;9.50;71.97;98853.16;5000158;28;103176;-60
2023/01/12 08:17:14;;;;;;;5.00;1.37;;;;;;;9.55;71.47;98851.06;4997775;28;102742;-59
2023/01/12 08:19:45;;;;;;;6.23;1.60;;;;;;;9.47;71.38;98848.09;4985252;28;103684;-60
2023/01/12 08:22:18;;;;;;;4.13;1.40;;;;;;;9.66;71.38;98850.34;4997719;28;103782;-60
2023/01/12 08:24:50;;;;;;;4.10;1.33;;;;;;;9.61;71.15;98849.81;4988684;28;103271;-60
2023/01/12 08:27:23;;;;;;;9.80;1.63;;;;;;;9.50;71.35;98839.97;4984495;28;102690;-59
2023/01/12 08:29:54;;;;;;;4.07;1.20;;;;;;;9.64;70.63;98837.28;4983011;28;104086;-59
2023/01/12 08:32:23;;;;;;;4.20;1.40;;;;;;;9.49;71.48;98846.19;4998870;28;104647;-60
2023/01/12 08:34:53;;;;;;;5.27;1.43;;;;;;;9.58;70.99;98845.59;4999089;28;103212;-60
2023/01/12 08:37:24;;;;;;;8.67;1.60;;;;;;;9.54;70.90;98844.13;4986787;28;102767;-59
2023/01/12 08:39:52;;;;;;;1.90;1.00;;;;;;;9.57;71.10;98849.16;4983181;28;102931;-59
2023/01/12 08:42:24;;;;;;;5.63;1.40;;;;;;;9.68;70.79;98845.84;4998807;28;105129;-59
2023/01/12 08:44:54;;;;;;;4.20;1.30;;;;;;;9.60;71.20;98851.59;4996305;28;103203;-59
2023/01/12 08:47:25;;;;;;;5.20;1.40;;;;;;;9.57;70.94;98843.88;5002186;28;102647;-59
2023/01/12 08:49:54;;;;;;;5.90;1.50;;;;;;;9.68;71.11;98849.34;4999070;28;104005;-59
2023/01/12 08:52:24;;;;;;;4.00;0.97;;;;;;;9.52;71.46;98851.25;4999313;28;104406;-59
2023/01/12 08:54:52;;;;;;;4.60;1.70;;;;;;;9.52;71.38;98848.63;4998237;28;103237;-60
2023/01/12 08:57:21;;;;;;;3.77;1.20;;;;;;;9.63;71.43;98847.91;4997002;28;102653;-59
2023/01/12 08:59:49;;;;;;;6.03;1.20;;;;;;;9.58;71.43;98842.97;4981197;28;103584;-59
2023/01/12 09:02:18;;;;;;;5.50;1.33;;;;;;;9.78;71.07;98842.47;4991746;28;104136;-59
2023/01/12 09:04:45;;;;;;;6.40;1.43;;;;;;;9.72;71.83;98847.31;4980623;28;103260;-60
2023/01/12 09:07:15;;;;;;;8.73;1.30;;;;;;;9.71;71.56;98850.91;4981434;28;103023;-59
2023/01/12 09:09:43;;;;;;;3.70;1.30;;;;;;;9.81;71.53;98852.00;4983467;28;103783;-59
2023/01/12 09:12:11;;;;;;;3.63;1.00;;;;;;;9.82;71.50;98843.94;4985972;28;103402;-59
2023/01/12 09:14:43;;;;;;;5.23;1.40;;;;;;;9.66;71.86;98856.47;4972739;28;104374;-59
2023/01/12 09:17:11;;;;;;;5.00;1.10;;;;;;;9.79;71.57;98852.09;4983176;28;102619;-59
2023/01/12 09:19:38;;;;;;;3.43;1.07;;;;;;;9.86;71.86;98848.09;4984990;28;102847;-59
2023/01/12 09:22:06;;;;;;;3.77;1.23;;;;;;;9.97;71.73;98857.06;4987285;28;103593;-60
2023/01/12 09:24:34;;;;;;;6.00;1.10;;;;;;;9.88;71.30;98864.66;4988376;28;103387;-62
2023/01/12 09:27:02;;;;;;;4.03;1.10;;;;;;;9.94;71.75;98863.41;4971481;28;102560;-59
2023/01/12 09:29:30;;;;;;;3.57;1.43;;;;;;;9.90;72.11;98873.34;4985948;28;102863;-59
2023/01/12 09:31:59;;;;;;;6.63;1.37;;;;;;;9.89;72.05;98881.34;4987020;28;103181;-60
2023/01/12 09:34:27;;;;;;;6.50;1.40;;;;;;;9.89;71.83;98874.28;4987218;28;103208;-60
2023/01/12 09:36:56;;;;;;;4.03;1.30;;;;;;;10.00;71.87;98875.34;4979688;28;102729;-60
2023/01/12 09:39:23;;;;;;;5.97;1.53;;;;;;;9.96;71.90;98884.44;4982047;28;104218;-59
2023/01/12 09:47:48;;;;;;;5.90;1.53;;;;;;;10.04;72.10;98869.78;4947171;28;104329;-59
2023/01/12 09:50:22;;;;;;;5.80;1.13;;;;;;;10.16;72.00;98870.78;4980034;28;102748;-59
2023/01/12 09:52:55;;;;;;;5.30;1.13;;;;;;;10.20;72.05;98877.53;4988045;28;104104;-60
2023/01/12 09:55:26;;;;;;;4.00;1.10;;;;;;;10.33;71.92;98870.47;4979610;28;104095;-60
2023/01/12 09:58:12;;;;;;;4.60;1.23;;;;;;;10.16;72.08;98857.56;4981921;28;102737;-60
2023/01/12 10:00:40;;;;;;;3.67;1.30;;;;;;;10.29;71.74;98842.56;4987480;28;103162;-59
2023/01/12 10:03:24;;;;;;;4.57;1.50;;;;;;;10.38;71.34;98839.31;4981264;28;104144;-59
2023/01/12 10:05:57;;;;;;;3.83;1.00;;;;;;;10.29;71.54;98834.66;4978622;28;103340;-60
2023/01/12 10:08:32;;;;;;;5.57;1.40;;;;;;;10.38;71.55;98820.81;4981215;28;102619;-60
2023/01/12 10:11:14;;;;;;;6.07;1.00;;;;;;;10.43;71.10;98813.41;4992538;28;104049;-60
2023/01/12 10:14:00;;;;;;;4.33;1.17;;;;;;;10.41;70.92;98805.59;4968066;28;104050;-60
2023/01/12 10:16:37;;;;;;;4.63;1.23;;;;;;;10.49;70.74;98802.44;4975052;28;103019;-59
2023/01/12 10:19:13;;;;;;;3.53;1.20;;;;;;;10.58;70.68;98800.94;4985969;28;102668;-59
2023/01/12 10:21:41;;;;;;;4.57;1.20;;;;;;;10.65;70.52;98799.53;4984492;28;103827;-59
2023/01/12 10:24:12;;;;;;;3.87;1.30;;;;;;;10.73;70.12;98800.69;4987430;28;103423;-59
2023/01/12 10:26:42;;;;;;;4.40;1.23;;;;;;;10.87;69.77;98797.03;4972629;28;103182;-60
2023/01/12 10:29:12;;;;;;;4.03;1.07;;;;;;;10.83;69.79;98785.88;4986744;28;104178;-59
2023/01/12 10:31:40;;;;;;;4.73;1.23;;;;;;;10.70;69.84;98806.19;4985728;28;103710;-60
2023/01/12 10:34:11;;;;;;;6.47;1.20;;;;;;;10.86;69.50;98804.13;4980986;28;103921;-60
2023/01/12 10:36:43;;;;;;;4.60;1.40;;;;;;;10.77;69.82;98796.88;4974428;28;104102;-59
2023/01/12 10:39:30;;;;;;;3.40;1.27;;;;;;;10.67;68.87;98795.81;4985772;28;102641;-60
2023/01/12 10:45:17;;;;;;;3.73;1.30;;;;;;;10.61;69.13;98796.25;4982590;28;103308;-60
2023/01/12 10:47:45;;;;;;;2.83;1.17;;;;;;;10.57;69.54;98804.50;4986086;28;103203;-59
2023/01/12 10:50:27;;;;;;;3.27;1.20;;;;;;;10.79;69.27;98813.47;4967506;28;102793;-60
2023/01/12 10:53:01;;;;;;;4.50;0.90;;;;;;;10.73;69.84;98799.81;4963654;28;102696;-59
2023/01/12 10:55:32;;;;;;;3.17;1.30;;;;;;;10.87;69.12;98794.41;4990343;28;103054;-60
2023/01/12 10:58:00;;;;;;;4.20;1.90;;;;;;;10.82;69.14;98784.16;4966613;28;103220;-59
2023/01/12 11:00:29;;;;;;;3.10;1.10;;;;;;;10.79;69.46;98789.66;4976992;28;103048;-59
2023/01/12 11:02:57;;;;;;;5.20;1.40;;;;;;;10.84;68.67;98776.97;4991689;28;104810;-60
2023/01/12 11:05:34;;;;;;;2.73;0.90;;;;;;;10.78;68.81;98769.47;4992813;28;103060;-60
2023/01/12 11:08:02;;;;;;;2.13;0.83;;;;;;;10.90;68.68;98763.31;4994132;28;103229;-62
2023/01/12 11:10:34;;;;;;;4.70;1.40;;;;;;;10.78;69.08;98760.72;5002689;28;102675;-62
2023/01/12 11:13:04;;;;;;;3.93;1.07;;;;;;;10.82;68.93;98757.75;5001239;28;102710;-62
2023/01/12 11:15:37;;;;;;;4.63;1.00;;;;;;;10.88;68.54;98767.88;5001285;28;103303;-62
2023/01/12 11:18:32;;;;;;;4.23;1.20;;;;;;;10.79;68.23;98771.19;4991694;28;103257;-62
2023/01/12 11:21:04;;;;;;;4.80;1.07;;;;;;;10.67;68.46;98753.53;4998891;28;102690;-62
2023/01/12 11:23:38;;;;;;;2.53;0.83;;;;;;;10.95;68.14;98762.97;4988236;28;104038;-62
2023/01/12 11:26:15;;;;;;;4.37;0.87;;;;;;;10.89;68.84;98758.16;5000020;28;103255;-62
2023/01/12 11:28:47;;;;;;;2.20;0.77;;;;;;;10.69;68.91;98751.66;4997917;28;103167;-62
2023/01/12 11:31:20;;;;;;;1.50;0.90;;;;;;;10.84;68.46;98750.53;4988713;28;102856;-62
2023/01/12 11:33:56;;;;;;;1.40;0.80;;;;;;;10.84;68.16;98750.53;4998103;28;103924;-62
2023/01/12 11:36:30;;;;;;;1.93;0.70;;;;;;;10.96;67.96;98744.38;4998769;28;103261;-62
2023/01/12 11:39:03;;;;;;;3.87;0.90;;;;;;;11.10;67.88;98745.16;4974281;28;103713;-62
2023/01/12 11:41:38;;;;;;;4.47;1.10;;;;;;;11.13;66.99;98744.91;4989536;28;102737;-62
2023/01/12 11:44:15;;;;;;;2.60;0.90;;;;;;;11.32;66.79;98724.09;4975325;28;103788;-62
2023/01/12 11:46:46;;;;;;;1.43;0.70;;;;;;;11.24;67.01;98734.38;4973096;28;107545;-62
2023/01/12 11:49:18;;;;;;;2.87;0.80;;;;;;;11.31;66.95;98727.69;4995332;28;103262;-62
2023/01/12 11:51:50;;;;;;;1.53;0.73;;;;;;;11.60;66.61;98734.28;4991290;28;102692;-60
2023/01/12 11:54:19;;;;;;;1.90;0.87;;;;;;;11.54;65.87;98721.50;4998446;28;103639;-60
2023/01/12 11:57:03;;;;;;;4.07;0.80;;;;;;;11.64;65.71;98710.13;4995517;28;104166;-60
2023/01/12 11:59:40;;;;;;;1.57;0.60;;;;;;;11.99;65.17;98715.38;4972960;28;104166;-60
2023/01/12 12:02:27;;;;;;;1.50;0.80;;;;;;;12.17;64.43;98719.25;4990919;28;102903;-60
2023/01/12 12:05:06;;;;;;;0.57;0.50;;;;;;;11.78;65.11;98710.91;4991276;28;103946;-62
2023/01/12 12:07:48;;;;;;;1.67;0.63;;;;;;;11.52;65.57;98716.34;5000202;28;103300;-60
2023/01/12 12:10:22;;;;;;;1.33;0.67;;;;;;;11.59;66.08;98706.16;4997993;28;103132;-60
2023/01/12 12:13:16;;;;;;;2.10;0.77;;;;;;;11.38;65.78;98713.03;4999529;28;103567;-60
2023/01/12 12:15:55;;;;;;;1.37;0.60;;;;;;;11.56;65.86;98716.97;4998070;28;102859;-60
2023/01/12 12:18:38;;;;;;;1.30;0.60;;;;;;;11.55;66.10;98707.31;4998624;28;104001;-60
2023/01/12 12:21:15;;;;;;;2.03;0.60;;;;;;;11.87;65.89;98705.75;5001581;28;103196;-60
2023/01/12 12:23:57;;;;;;;0.80;0.50;;;;;;;11.75;65.60;98711.13;4988795;28;102824;-59
2023/01/12 12:26:29;;;;;;;0.73;0.57;;;;;;;11.90;65.22;98696.72;4984100;28;104791;-60
2023/01/12 12:29:26;;;;;;;2.33;0.80;;;;;;;11.90;65.66;98702.84;4995009;28;103804;-60